Terminal Aerodrome Forecast
Issued by NWS

Home | Current Version | Previous Version | Text Only | Print | Product List | Glossary On
Versions: 1 2 3 4 5 6 7 8 9 10 11 12
000
FTUS46 KSGX 301138
TAFTRM
TAF
KTRM 301138Z 3012/3112 VRB05KT P6SM FEW100
     FM302100 15008KT P6SM VCTS FEW060 SCT100CB
     FM310600 33008KT P6SM FEW060 SCT100=

USA.gov is the U.S. government's official web portal to all federal, state and local government web resources and services.